sensor_id;sensor_type;location;lat;lon;timestamp;P1;durP1;ratioP1;P2;durP2;ratioP2
12412;SDS011;13877;18.896;-99.222;2022-10-31T00:01:12;30.05;;;18.55;;
12412;SDS011;13877;18.896;-99.222;2022-10-31T00:04:00;31.95;;;20.77;;
12412;SDS011;13877;18.896;-99.222;2022-10-31T00:06:27;33.45;;;19.90;;
12412;SDS011;13877;18.896;-99.222;2022-10-31T00:08:58;33.45;;;20.02;;
12412;SDS011;13877;18.896;-99.222;2022-10-31T00:11:27;37.75;;;19.92;;
12412;SDS011;13877;18.896;-99.222;2022-10-31T00:13:54;31.55;;;18.55;;
12412;SDS011;13877;18.896;-99.222;2022-10-31T00:16:23;30.00;;;19.48;;
12412;SDS011;13877;18.896;-99.222;2022-10-31T00:18:51;30.95;;;20.02;;
12412;SDS011;13877;18.896;-99.222;2022-10-31T00:21:19;27.27;;;18.63;;
12412;SDS011;13877;18.896;-99.222;2022-10-31T00:23:47;33.15;;;19.73;;
12412;SDS011;13877;18.896;-99.222;2022-10-31T00:26:14;32.13;;;18.98;;
12412;SDS011;13877;18.896;-99.222;2022-10-31T00:28:41;30.77;;;20.38;;
12412;SDS011;13877;18.896;-99.222;2022-10-31T00:31:10;36.15;;;20.90;;
12412;SDS011;13877;18.896;-99.222;2022-10-31T00:33:38;32.55;;;20.73;;
12412;SDS011;13877;18.896;-99.222;2022-10-31T00:36:06;36.33;;;21.77;;
12412;SDS011;13877;18.896;-99.222;2022-10-31T00:38:36;41.60;;;21.60;;
12412;SDS011;13877;18.896;-99.222;2022-10-31T00:41:03;35.08;;;20.88;;
12412;SDS011;13877;18.896;-99.222;2022-10-31T00:43:30;36.58;;;21.75;;
12412;SDS011;13877;18.896;-99.222;2022-10-31T00:45:57;35.83;;;20.42;;
12412;SDS011;13877;18.896;-99.222;2022-10-31T00:48:24;38.08;;;20.58;;
12412;SDS011;13877;18.896;-99.222;2022-10-31T00:50:52;33.35;;;18.77;;
12412;SDS011;13877;18.896;-99.222;2022-10-31T00:53:19;33.22;;;19.58;;
12412;SDS011;13877;18.896;-99.222;2022-10-31T00:55:46;34.08;;;20.83;;
12412;SDS011;13877;18.896;-99.222;2022-10-31T00:58:14;32.80;;;19.35;;
12412;SDS011;13877;18.896;-99.222;2022-10-31T01:00:40;35.08;;;20.45;;
12412;SDS011;13877;18.896;-99.222;2022-10-31T01:03:07;36.22;;;20.77;;
12412;SDS011;13877;18.896;-99.222;2022-10-31T01:05:38;31.00;;;20.42;;
12412;SDS011;13877;18.896;-99.222;2022-10-31T01:08:05;42.53;;;21.92;;
12412;SDS011;13877;18.896;-99.222;2022-10-31T01:10:32;42.55;;;22.58;;
12412;SDS011;13877;18.896;-99.222;2022-10-31T01:12:59;36.83;;;22.00;;
12412;SDS011;13877;18.896;-99.222;2022-10-31T01:15:25;38.03;;;21.98;;
12412;SDS011;13877;18.896;-99.222;2022-10-31T01:17:52;42.10;;;22.20;;
12412;SDS011;13877;18.896;-99.222;2022-10-31T01:20:20;34.30;;;21.23;;
12412;SDS011;13877;18.896;-99.222;2022-10-31T01:22:47;42.42;;;22.35;;
12412;SDS011;13877;18.896;-99.222;2022-10-31T01:25:14;39.58;;;22.40;;
12412;SDS011;13877;18.896;-99.222;2022-10-31T01:27:41;41.47;;;21.50;;
12412;SDS011;13877;18.896;-99.222;2022-10-31T01:30:08;33.90;;;22.95;;
12412;SDS011;13877;18.896;-99.222;2022-10-31T01:32:35;42.58;;;22.80;;
12412;SDS011;13877;18.896;-99.222;2022-10-31T01:35:02;36.25;;;23.63;;
12412;SDS011;13877;18.896;-99.222;2022-10-31T01:37:30;36.15;;;22.10;;
12412;SDS011;13877;18.896;-99.222;2022-10-31T01:39:56;35.97;;;22.00;;
12412;SDS011;13877;18.896;-99.222;2022-10-31T01:42:23;37.75;;;22.45;;
12412;SDS011;13877;18.896;-99.222;2022-10-31T01:47:21;39.22;;;23.98;;
12412;SDS011;13877;18.896;-99.222;2022-10-31T01:50:35;41.17;;;23.30;;
12412;SDS011;13877;18.896;-99.222;2022-10-31T01:53:05;39.50;;;23.42;;
12412;SDS011;13877;18.896;-99.222;2022-10-31T01:55:35;38.78;;;23.15;;
12412;SDS011;13877;18.896;-99.222;2022-10-31T01:58:11;38.97;;;22.88;;
12412;SDS011;13877;18.896;-99.222;2022-10-31T02:00:45;37.13;;;23.15;;
12412;SDS011;13877;18.896;-99.222;2022-10-31T02:03:17;42.80;;;23.02;;
12412;SDS011;13877;18.896;-99.222;2022-10-31T02:05:46;40.00;;;23.75;;
12412;SDS011;13877;18.896;-99.222;2022-10-31T02:08:18;42.60;;;24.45;;
12412;SDS011;13877;18.896;-99.222;2022-10-31T02:10:54;46.53;;;24.45;;
12412;SDS011;13877;18.896;-99.222;2022-10-31T02:13:23;42.42;;;25.23;;
12412;SDS011;13877;18.896;-99.222;2022-10-31T02:15:53;49.80;;;25.88;;
12412;SDS011;13877;18.896;-99.222;2022-10-31T02:18:22;41.40;;;25.73;;
12412;SDS011;13877;18.896;-99.222;2022-10-31T02:20:57;44.47;;;24.83;;
12412;SDS011;13877;18.896;-99.222;2022-10-31T02:31:54;42.22;;;26.02;;
12412;SDS011;13877;18.896;-99.222;2022-10-31T02:40:25;51.50;;;24.95;;
12412;SDS011;13877;18.896;-99.222;2022-10-31T02:43:15;43.15;;;26.23;;
12412;SDS011;13877;18.896;-99.222;2022-10-31T02:46:10;38.80;;;25.52;;
12412;SDS011;13877;18.896;-99.222;2022-10-31T02:48:45;41.45;;;25.65;;
12412;SDS011;13877;18.896;-99.222;2022-10-31T02:51:14;47.47;;;28.27;;
12412;SDS011;13877;18.896;-99.222;2022-10-31T02:53:42;47.95;;;25.67;;
12412;SDS011;13877;18.896;-99.222;2022-10-31T02:56:13;53.45;;;27.08;;
12412;SDS011;13877;18.896;-99.222;2022-10-31T03:01:24;61.88;;;29.40;;
12412;SDS011;13877;18.896;-99.222;2022-10-31T03:10:08;55.63;;;28.55;;
12412;SDS011;13877;18.896;-99.222;2022-10-31T03:15:13;48.25;;;24.65;;
12412;SDS011;13877;18.896;-99.222;2022-10-31T03:18:00;35.50;;;21.77;;
12412;SDS011;13877;18.896;-99.222;2022-10-31T03:20:37;44.78;;;21.05;;
12412;SDS011;13877;18.896;-99.222;2022-10-31T03:23:08;38.22;;;21.27;;
12412;SDS011;13877;18.896;-99.222;2022-10-31T03:25:39;35.58;;;20.13;;
12412;SDS011;13877;18.896;-99.222;2022-10-31T03:28:08;34.58;;;19.52;;
12412;SDS011;13877;18.896;-99.222;2022-10-31T03:30:38;33.05;;;19.42;;
12412;SDS011;13877;18.896;-99.222;2022-10-31T03:33:10;28.25;;;18.25;;
12412;SDS011;13877;18.896;-99.222;2022-10-31T03:35:45;31.23;;;17.55;;
12412;SDS011;13877;18.896;-99.222;2022-10-31T03:38:14;27.45;;;16.77;;
12412;SDS011;13877;18.896;-99.222;2022-10-31T03:40:42;27.60;;;17.00;;
12412;SDS011;13877;18.896;-99.222;2022-10-31T03:43:17;26.80;;;16.23;;
12412;SDS011;13877;18.896;-99.222;2022-10-31T03:45:50;25.88;;;16.50;;
12412;SDS011;13877;18.896;-99.222;2022-10-31T03:48:18;30.70;;;17.00;;
12412;SDS011;13877;18.896;-99.222;2022-10-31T03:53:40;33.63;;;18.02;;
12412;SDS011;13877;18.896;-99.222;2022-10-31T03:57:05;35.05;;;17.23;;
12412;SDS011;13877;18.896;-99.222;2022-10-31T03:59:39;22.95;;;15.73;;
12412;SDS011;13877;18.896;-99.222;2022-10-31T04:04:38;30.00;;;17.27;;
12412;SDS011;13877;18.896;-99.222;2022-10-31T04:07:05;30.75;;;16.88;;
12412;SDS011;13877;18.896;-99.222;2022-10-31T04:09:35;25.08;;;16.02;;
12412;SDS011;13877;18.896;-99.222;2022-10-31T04:12:04;29.65;;;15.95;;
12412;SDS011;13877;18.896;-99.222;2022-10-31T04:14:52;28.90;;;16.20;;
12412;SDS011;13877;18.896;-99.222;2022-10-31T04:17:23;32.67;;;14.88;;
12412;SDS011;13877;18.896;-99.222;2022-10-31T04:19:54;38.42;;;16.45;;
12412;SDS011;13877;18.896;-99.222;2022-10-31T04:22:21;24.63;;;15.40;;
12412;SDS011;13877;18.896;-99.222;2022-10-31T04:24:48;26.40;;;15.57;;
12412;SDS011;13877;18.896;-99.222;2022-10-31T04:27:16;25.95;;;16.30;;
12412;SDS011;13877;18.896;-99.222;2022-10-31T04:29:44;24.77;;;15.10;;
12412;SDS011;13877;18.896;-99.222;2022-10-31T04:32:11;23.75;;;15.60;;
12412;SDS011;13877;18.896;-99.222;2022-10-31T04:34:39;25.17;;;15.55;;
12412;SDS011;13877;18.896;-99.222;2022-10-31T04:37:06;23.90;;;15.80;;
12412;SDS011;13877;18.896;-99.222;2022-10-31T04:39:33;27.70;;;16.52;;
12412;SDS011;13877;18.896;-99.222;2022-10-31T04:42:18;30.58;;;15.95;;
12412;SDS011;13877;18.896;-99.222;2022-10-31T04:44:45;32.95;;;15.88;;
12412;SDS011;13877;18.896;-99.222;2022-10-31T04:47:14;32.15;;;16.63;;
12412;SDS011;13877;18.896;-99.222;2022-10-31T04:49:42;26.65;;;17.33;;
12412;SDS011;13877;18.896;-99.222;2022-10-31T04:52:11;32.05;;;17.23;;
12412;SDS011;13877;18.896;-99.222;2022-10-31T04:54:38;29.08;;;17.80;;
12412;SDS011;13877;18.896;-99.222;2022-10-31T04:57:43;31.90;;;18.05;;
12412;SDS011;13877;18.896;-99.222;2022-10-31T05:00:14;29.77;;;18.75;;
12412;SDS011;13877;18.896;-99.222;2022-10-31T05:02:53;36.25;;;21.30;;
12412;SDS011;13877;18.896;-99.222;2022-10-31T05:05:24;35.50;;;21.30;;
12412;SDS011;13877;18.896;-99.222;2022-10-31T05:07:54;43.25;;;25.27;;
12412;SDS011;13877;18.896;-99.222;2022-10-31T05:10:23;50.50;;;26.30;;
12412;SDS011;13877;18.896;-99.222;2022-10-31T05:12:54;52.58;;;30.42;;
12412;SDS011;13877;18.896;-99.222;2022-10-31T05:15:44;52.28;;;29.98;;
12412;SDS011;13877;18.896;-99.222;2022-10-31T05:18:14;52.22;;;30.08;;
12412;SDS011;13877;18.896;-99.222;2022-10-31T05:20:59;55.83;;;29.08;;
12412;SDS011;13877;18.896;-99.222;2022-10-31T05:23:56;52.53;;;29.63;;
12412;SDS011;13877;18.896;-99.222;2022-10-31T05:26:23;52.97;;;29.67;;
12412;SDS011;13877;18.896;-99.222;2022-10-31T05:28:52;55.33;;;30.50;;
12412;SDS011;13877;18.896;-99.222;2022-10-31T05:31:20;48.10;;;28.20;;
12412;SDS011;13877;18.896;-99.222;2022-10-31T05:33:48;57.13;;;27.98;;
12412;SDS011;13877;18.896;-99.222;2022-10-31T05:36:33;51.25;;;28.08;;
12412;SDS011;13877;18.896;-99.222;2022-10-31T05:39:11;59.17;;;29.02;;
12412;SDS011;13877;18.896;-99.222;2022-10-31T05:41:46;53.78;;;28.40;;
12412;SDS011;13877;18.896;-99.222;2022-10-31T05:44:19;59.70;;;29.20;;
12412;SDS011;13877;18.896;-99.222;2022-10-31T05:46:56;45.25;;;26.25;;
12412;SDS011;13877;18.896;-99.222;2022-10-31T05:49:23;54.53;;;27.83;;
12412;SDS011;13877;18.896;-99.222;2022-10-31T05:52:08;53.58;;;28.40;;
12412;SDS011;13877;18.896;-99.222;2022-10-31T05:54:42;47.00;;;28.27;;
12412;SDS011;13877;18.896;-99.222;2022-10-31T05:57:09;51.30;;;29.00;;
12412;SDS011;13877;18.896;-99.222;2022-10-31T05:59:36;50.95;;;28.17;;
12412;SDS011;13877;18.896;-99.222;2022-10-31T06:02:03;46.83;;;28.70;;
12412;SDS011;13877;18.896;-99.222;2022-10-31T06:04:48;48.55;;;29.67;;
12412;SDS011;13877;18.896;-99.222;2022-10-31T06:07:15;46.40;;;28.80;;
12412;SDS011;13877;18.896;-99.222;2022-10-31T06:09:44;51.72;;;28.85;;
12412;SDS011;13877;18.896;-99.222;2022-10-31T06:12:11;45.92;;;27.02;;
12412;SDS011;13877;18.896;-99.222;2022-10-31T06:15:04;53.72;;;28.17;;
12412;SDS011;13877;18.896;-99.222;2022-10-31T06:17:33;48.58;;;27.58;;
12412;SDS011;13877;18.896;-99.222;2022-10-31T06:20:06;53.15;;;28.23;;
12412;SDS011;13877;18.896;-99.222;2022-10-31T06:22:40;44.20;;;26.73;;
12412;SDS011;13877;18.896;-99.222;2022-10-31T06:25:07;46.58;;;25.60;;
12412;SDS011;13877;18.896;-99.222;2022-10-31T06:27:37;49.78;;;25.65;;
12412;SDS011;13877;18.896;-99.222;2022-10-31T06:30:10;42.25;;;25.17;;
12412;SDS011;13877;18.896;-99.222;2022-10-31T06:32:38;43.08;;;24.08;;
12412;SDS011;13877;18.896;-99.222;2022-10-31T06:35:05;29.38;;;17.13;;
12412;SDS011;13877;18.896;-99.222;2022-10-31T06:37:34;26.30;;;16.20;;
12412;SDS011;13877;18.896;-99.222;2022-10-31T06:40:20;26.35;;;15.70;;
12412;SDS011;13877;18.896;-99.222;2022-10-31T06:43:20;19.10;;;11.57;;
12412;SDS011;13877;18.896;-99.222;2022-10-31T06:45:49;15.48;;;9.50;;
12412;SDS011;13877;18.896;-99.222;2022-10-31T06:48:25;15.73;;;11.52;;
12412;SDS011;13877;18.896;-99.222;2022-10-31T06:51:11;27.83;;;15.25;;
12412;SDS011;13877;18.896;-99.222;2022-10-31T06:53:38;24.50;;;16.45;;
12412;SDS011;13877;18.896;-99.222;2022-10-31T06:56:07;29.50;;;17.42;;
12412;SDS011;13877;18.896;-99.222;2022-10-31T06:58:39;36.47;;;19.02;;
12412;SDS011;13877;18.896;-99.222;2022-10-31T07:01:08;30.23;;;18.80;;
12412;SDS011;13877;18.896;-99.222;2022-10-31T07:03:35;29.90;;;18.80;;
12412;SDS011;13877;18.896;-99.222;2022-10-31T07:06:02;39.40;;;21.05;;
12412;SDS011;13877;18.896;-99.222;2022-10-31T07:08:28;37.17;;;18.50;;
12412;SDS011;13877;18.896;-99.222;2022-10-31T07:10:57;32.50;;;20.08;;
12412;SDS011;13877;18.896;-99.222;2022-10-31T07:13:26;49.75;;;23.73;;
12412;SDS011;13877;18.896;-99.222;2022-10-31T07:16:02;42.92;;;24.83;;
12412;SDS011;13877;18.896;-99.222;2022-10-31T07:18:34;37.97;;;21.67;;
12412;SDS011;13877;18.896;-99.222;2022-10-31T07:21:01;47.92;;;24.67;;
12412;SDS011;13877;18.896;-99.222;2022-10-31T07:23:29;40.22;;;19.88;;
12412;SDS011;13877;18.896;-99.222;2022-10-31T07:26:16;40.13;;;21.23;;
12412;SDS011;13877;18.896;-99.222;2022-10-31T07:28:46;34.85;;;18.40;;
12412;SDS011;13877;18.896;-99.222;2022-10-31T07:31:16;44.10;;;21.48;;
12412;SDS011;13877;18.896;-99.222;2022-10-31T07:33:43;46.03;;;23.25;;
12412;SDS011;13877;18.896;-99.222;2022-10-31T07:36:42;45.97;;;22.80;;
12412;SDS011;13877;18.896;-99.222;2022-10-31T07:39:11;57.22;;;25.88;;
12412;SDS011;13877;18.896;-99.222;2022-10-31T07:41:47;52.72;;;26.88;;
12412;SDS011;13877;18.896;-99.222;2022-10-31T07:44:18;61.65;;;29.77;;
12412;SDS011;13877;18.896;-99.222;2022-10-31T07:47:20;66.28;;;29.10;;
12412;SDS011;13877;18.896;-99.222;2022-10-31T07:50:05;47.53;;;25.38;;
12412;SDS011;13877;18.896;-99.222;2022-10-31T07:52:58;43.80;;;26.27;;
12412;SDS011;13877;18.896;-99.222;2022-10-31T07:55:37;44.03;;;26.27;;
12412;SDS011;13877;18.896;-99.222;2022-10-31T07:58:07;48.08;;;26.40;;
12412;SDS011;13877;18.896;-99.222;2022-10-31T08:00:40;42.13;;;23.83;;
12412;SDS011;13877;18.896;-99.222;2022-10-31T08:03:12;47.08;;;25.75;;
12412;SDS011;13877;18.896;-99.222;2022-10-31T08:05:58;37.63;;;21.45;;
12412;SDS011;13877;18.896;-99.222;2022-10-31T08:08:45;41.70;;;21.50;;
12412;SDS011;13877;18.896;-99.222;2022-10-31T08:11:13;35.17;;;18.40;;
12412;SDS011;13877;18.896;-99.222;2022-10-31T08:13:39;30.38;;;18.88;;
12412;SDS011;13877;18.896;-99.222;2022-10-31T08:16:12;34.33;;;20.13;;
12412;SDS011;13877;18.896;-99.222;2022-10-31T08:18:50;33.50;;;18.40;;
12412;SDS011;13877;18.896;-99.222;2022-10-31T08:21:17;33.70;;;17.13;;
12412;SDS011;13877;18.896;-99.222;2022-10-31T08:23:44;29.92;;;16.80;;
12412;SDS011;13877;18.896;-99.222;2022-10-31T08:26:13;31.40;;;16.77;;
12412;SDS011;13877;18.896;-99.222;2022-10-31T08:28:40;25.20;;;16.08;;
12412;SDS011;13877;18.896;-99.222;2022-10-31T08:31:08;24.83;;;15.20;;
12412;SDS011;13877;18.896;-99.222;2022-10-31T08:33:38;27.13;;;14.85;;
12412;SDS011;13877;18.896;-99.222;2022-10-31T08:36:07;21.33;;;13.32;;
12412;SDS011;13877;18.896;-99.222;2022-10-31T08:38:54;116.95;;;22.60;;
12412;SDS011;13877;18.896;-99.222;2022-10-31T08:41:21;22.08;;;14.00;;
12412;SDS011;13877;18.896;-99.222;2022-10-31T08:43:48;19.13;;;12.55;;
12412;SDS011;13877;18.896;-99.222;2022-10-31T08:46:15;22.38;;;13.85;;
12412;SDS011;13877;18.896;-99.222;2022-10-31T08:48:43;21.80;;;12.98;;
12412;SDS011;13877;18.896;-99.222;2022-10-31T08:51:11;31.88;;;14.05;;
12412;SDS011;13877;18.896;-99.222;2022-10-31T08:53:38;27.75;;;12.20;;
12412;SDS011;13877;18.896;-99.222;2022-10-31T08:56:24;16.58;;;10.02;;
12412;SDS011;13877;18.896;-99.222;2022-10-31T08:58:52;18.17;;;10.38;;
12412;SDS011;13877;18.896;-99.222;2022-10-31T09:01:28;20.05;;;11.10;;
12412;SDS011;13877;18.896;-99.222;2022-10-31T09:03:55;21.27;;;10.85;;
12412;SDS011;13877;18.896;-99.222;2022-10-31T09:06:22;14.38;;;9.20;;
12412;SDS011;13877;18.896;-99.222;2022-10-31T09:08:49;18.67;;;9.40;;
12412;SDS011;13877;18.896;-99.222;2022-10-31T09:11:16;16.35;;;8.38;;
12412;SDS011;13877;18.896;-99.222;2022-10-31T09:14:15;20.25;;;9.07;;
12412;SDS011;13877;18.896;-99.222;2022-10-31T09:16:42;592.90;;;37.05;;
12412;SDS011;13877;18.896;-99.222;2022-10-31T09:19:15;18.73;;;12.07;;
12412;SDS011;13877;18.896;-99.222;2022-10-31T09:21:45;42.72;;;18.73;;
12412;SDS011;13877;18.896;-99.222;2022-10-31T09:24:12;308.23;;;68.20;;
12412;SDS011;13877;18.896;-99.222;2022-10-31T09:26:41;24.27;;;12.75;;
12412;SDS011;13877;18.896;-99.222;2022-10-31T09:29:25;21.90;;;12.23;;
12412;SDS011;13877;18.896;-99.222;2022-10-31T09:31:57;27.17;;;13.98;;
12412;SDS011;13877;18.896;-99.222;2022-10-31T09:34:28;24.55;;;13.88;;
12412;SDS011;13877;18.896;-99.222;2022-10-31T09:37:02;24.55;;;12.40;;
12412;SDS011;13877;18.896;-99.222;2022-10-31T09:39:29;21.92;;;12.30;;
12412;SDS011;13877;18.896;-99.222;2022-10-31T09:42:27;26.15;;;12.45;;
12412;SDS011;13877;18.896;-99.222;2022-10-31T09:45:31;23.13;;;13.55;;
12412;SDS011;13877;18.896;-99.222;2022-10-31T09:51:20;26.85;;;14.88;;
12412;SDS011;13877;18.896;-99.222;2022-10-31T09:57:16;27.63;;;13.57;;
12412;SDS011;13877;18.896;-99.222;2022-10-31T09:59:48;30.15;;;16.27;;
12412;SDS011;13877;18.896;-99.222;2022-10-31T10:05:24;32.33;;;18.70;;
12412;SDS011;13877;18.896;-99.222;2022-10-31T10:08:21;31.67;;;19.90;;
12412;SDS011;13877;18.896;-99.222;2022-10-31T10:11:48;33.03;;;20.00;;
12412;SDS011;13877;18.896;-99.222;2022-10-31T10:25:24;42.05;;;23.08;;
12412;SDS011;13877;18.896;-99.222;2022-10-31T10:30:57;44.17;;;25.67;;
12412;SDS011;13877;18.896;-99.222;2022-10-31T10:33:39;44.58;;;26.10;;
12412;SDS011;13877;18.896;-99.222;2022-10-31T10:39:11;38.35;;;22.63;;
12412;SDS011;13877;18.896;-99.222;2022-10-31T10:41:59;237.13;;;34.35;;
12412;SDS011;13877;18.896;-99.222;2022-10-31T10:44:45;618.33;;;55.58;;
12412;SDS011;13877;18.896;-99.222;2022-10-31T10:47:35;448.35;;;58.50;;
12412;SDS011;13877;18.896;-99.222;2022-10-31T10:50:15;196.02;;;34.50;;
12412;SDS011;13877;18.896;-99.222;2022-10-31T10:55:40;42.70;;;23.88;;
12412;SDS011;13877;18.896;-99.222;2022-10-31T10:58:22;42.80;;;24.48;;
12412;SDS011;13877;18.896;-99.222;2022-10-31T11:00:48;47.38;;;25.27;;
12412;SDS011;13877;18.896;-99.222;2022-10-31T11:03:18;51.70;;;25.33;;
12412;SDS011;13877;18.896;-99.222;2022-10-31T11:11:02;45.90;;;24.15;;
12412;SDS011;13877;18.896;-99.222;2022-10-31T11:13:52;46.25;;;26.25;;
12412;SDS011;13877;18.896;-99.222;2022-10-31T11:16:42;40.03;;;23.85;;
12412;SDS011;13877;18.896;-99.222;2022-10-31T11:19:19;41.95;;;23.73;;
12412;SDS011;13877;18.896;-99.222;2022-10-31T11:21:52;51.28;;;25.75;;
12412;SDS011;13877;18.896;-99.222;2022-10-31T11:24:21;46.40;;;25.35;;
12412;SDS011;13877;18.896;-99.222;2022-10-31T11:27:02;40.95;;;22.63;;
12412;SDS011;13877;18.896;-99.222;2022-10-31T11:29:40;39.33;;;22.45;;
12412;SDS011;13877;18.896;-99.222;2022-10-31T11:32:08;36.88;;;21.60;;
12412;SDS011;13877;18.896;-99.222;2022-10-31T11:35:02;34.83;;;21.38;;
12412;SDS011;13877;18.896;-99.222;2022-10-31T11:37:40;42.55;;;22.52;;
12412;SDS011;13877;18.896;-99.222;2022-10-31T11:40:44;42.50;;;23.52;;
12412;SDS011;13877;18.896;-99.222;2022-10-31T11:43:02;40.85;;;23.42;;
12412;SDS011;13877;18.896;-99.222;2022-10-31T11:45:32;42.70;;;19.95;;
12412;SDS011;13877;18.896;-99.222;2022-10-31T11:48:02;30.67;;;19.15;;
12412;SDS011;13877;18.896;-99.222;2022-10-31T11:51:05;35.97;;;19.27;;
12412;SDS011;13877;18.896;-99.222;2022-10-31T11:53:32;34.47;;;19.88;;
12412;SDS011;13877;18.896;-99.222;2022-10-31T11:56:05;33.47;;;21.33;;
12412;SDS011;13877;18.896;-99.222;2022-10-31T11:58:39;36.40;;;19.98;;
12412;SDS011;13877;18.896;-99.222;2022-10-31T12:01:08;40.30;;;20.92;;
12412;SDS011;13877;18.896;-99.222;2022-10-31T12:03:59;33.60;;;21.20;;
12412;SDS011;13877;18.896;-99.222;2022-10-31T12:06:33;27.73;;;17.75;;
12412;SDS011;13877;18.896;-99.222;2022-10-31T12:09:02;36.15;;;18.48;;
12412;SDS011;13877;18.896;-99.222;2022-10-31T12:14:43;29.15;;;17.08;;
12412;SDS011;13877;18.896;-99.222;2022-10-31T12:20:21;228.60;;;61.00;;
12412;SDS011;13877;18.896;-99.222;2022-10-31T12:31:22;31.30;;;17.17;;
12412;SDS011;13877;18.896;-99.222;2022-10-31T12:36:33;27.20;;;17.00;;
12412;SDS011;13877;18.896;-99.222;2022-10-31T12:45:35;27.63;;;16.30;;
12412;SDS011;13877;18.896;-99.222;2022-10-31T12:51:53;36.65;;;19.08;;
12412;SDS011;13877;18.896;-99.222;2022-10-31T12:54:17;35.15;;;19.45;;
12412;SDS011;13877;18.896;-99.222;2022-10-31T13:00:03;29.77;;;17.98;;
12412;SDS011;13877;18.896;-99.222;2022-10-31T13:02:45;34.97;;;18.88;;
12412;SDS011;13877;18.896;-99.222;2022-10-31T13:05:19;27.23;;;16.90;;
12412;SDS011;13877;18.896;-99.222;2022-10-31T13:10:28;30.70;;;16.52;;
12412;SDS011;13877;18.896;-99.222;2022-10-31T13:13:21;102.20;;;24.83;;
12412;SDS011;13877;18.896;-99.222;2022-10-31T13:16:00;105.47;;;23.88;;
12412;SDS011;13877;18.896;-99.222;2022-10-31T13:18:32;21.27;;;12.85;;
12412;SDS011;13877;18.896;-99.222;2022-10-31T13:21:03;20.40;;;13.20;;
12412;SDS011;13877;18.896;-99.222;2022-10-31T13:23:36;15.75;;;10.23;;
12412;SDS011;13877;18.896;-99.222;2022-10-31T13:26:16;21.60;;;12.63;;
12412;SDS011;13877;18.896;-99.222;2022-10-31T13:29:11;32.30;;;13.23;;
12412;SDS011;13877;18.896;-99.222;2022-10-31T13:31:46;19.33;;;10.25;;
12412;SDS011;13877;18.896;-99.222;2022-10-31T13:34:18;32.13;;;10.90;;
12412;SDS011;13877;18.896;-99.222;2022-10-31T13:37:12;16.75;;;10.02;;
12412;SDS011;13877;18.896;-99.222;2022-10-31T13:40:11;16.95;;;10.27;;
12412;SDS011;13877;18.896;-99.222;2022-10-31T13:42:59;16.92;;;9.27;;
12412;SDS011;13877;18.896;-99.222;2022-10-31T13:45:50;29.98;;;10.57;;
12412;SDS011;13877;18.896;-99.222;2022-10-31T13:50:57;16.40;;;8.95;;
12412;SDS011;13877;18.896;-99.222;2022-10-31T13:58:34;30.80;;;9.35;;
12412;SDS011;13877;18.896;-99.222;2022-10-31T14:03:35;21.40;;;9.63;;
12412;SDS011;13877;18.896;-99.222;2022-10-31T14:06:07;17.60;;;8.52;;
12412;SDS011;13877;18.896;-99.222;2022-10-31T14:08:37;98.85;;;12.50;;
12412;SDS011;13877;18.896;-99.222;2022-10-31T14:11:09;17.73;;;9.27;;
12412;SDS011;13877;18.896;-99.222;2022-10-31T14:13:54;119.45;;;17.33;;
12412;SDS011;13877;18.896;-99.222;2022-10-31T14:16:23;20.58;;;10.55;;
12412;SDS011;13877;18.896;-99.222;2022-10-31T14:19:01;18.75;;;9.55;;
12412;SDS011;13877;18.896;-99.222;2022-10-31T14:21:38;14.95;;;9.90;;
12412;SDS011;13877;18.896;-99.222;2022-10-31T14:24:15;14.77;;;8.40;;
12412;SDS011;13877;18.896;-99.222;2022-10-31T14:26:52;12.05;;;8.10;;
12412;SDS011;13877;18.896;-99.222;2022-10-31T14:29:38;19.02;;;8.60;;
12412;SDS011;13877;18.896;-99.222;2022-10-31T14:34:40;17.52;;;10.35;;
12412;SDS011;13877;18.896;-99.222;2022-10-31T14:51:39;23.05;;;10.57;;
12412;SDS011;13877;18.896;-99.222;2022-10-31T14:54:32;17.58;;;10.35;;
12412;SDS011;13877;18.896;-99.222;2022-10-31T14:57:02;22.10;;;12.18;;
12412;SDS011;13877;18.896;-99.222;2022-10-31T14:59:33;22.02;;;10.40;;
12412;SDS011;13877;18.896;-99.222;2022-10-31T15:05:07;21.42;;;11.23;;
12412;SDS011;13877;18.896;-99.222;2022-10-31T15:07:35;20.50;;;11.20;;
12412;SDS011;13877;18.896;-99.222;2022-10-31T15:10:06;21.07;;;11.60;;
12412;SDS011;13877;18.896;-99.222;2022-10-31T15:12:47;23.15;;;10.90;;
12412;SDS011;13877;18.896;-99.222;2022-10-31T15:15:18;18.33;;;11.90;;
12412;SDS011;13877;18.896;-99.222;2022-10-31T15:17:53;16.95;;;10.30;;
12412;SDS011;13877;18.896;-99.222;2022-10-31T15:20:28;20.92;;;11.82;;
12412;SDS011;13877;18.896;-99.222;2022-10-31T15:22:59;17.95;;;11.57;;
12412;SDS011;13877;18.896;-99.222;2022-10-31T15:25:28;22.45;;;12.18;;
12412;SDS011;13877;18.896;-99.222;2022-10-31T15:27:59;17.30;;;10.45;;
12412;SDS011;13877;18.896;-99.222;2022-10-31T15:30:27;19.45;;;10.50;;
12412;SDS011;13877;18.896;-99.222;2022-10-31T15:32:55;16.05;;;11.27;;
12412;SDS011;13877;18.896;-99.222;2022-10-31T15:35:26;19.77;;;11.43;;
12412;SDS011;13877;18.896;-99.222;2022-10-31T15:37:56;24.80;;;11.30;;
12412;SDS011;13877;18.896;-99.222;2022-10-31T15:40:24;21.98;;;12.60;;
12412;SDS011;13877;18.896;-99.222;2022-10-31T15:42:56;20.95;;;12.27;;
12412;SDS011;13877;18.896;-99.222;2022-10-31T15:45:28;23.58;;;13.50;;
12412;SDS011;13877;18.896;-99.222;2022-10-31T15:48:03;20.08;;;13.63;;
12412;SDS011;13877;18.896;-99.222;2022-10-31T15:51:00;21.95;;;12.73;;
12412;SDS011;13877;18.896;-99.222;2022-10-31T15:56:20;19.75;;;12.93;;
12412;SDS011;13877;18.896;-99.222;2022-10-31T15:58:50;22.60;;;14.70;;
12412;SDS011;13877;18.896;-99.222;2022-10-31T16:04:23;21.48;;;13.48;;
12412;SDS011;13877;18.896;-99.222;2022-10-31T16:06:58;22.67;;;14.18;;
12412;SDS011;13877;18.896;-99.222;2022-10-31T16:09:27;21.95;;;14.60;;
12412;SDS011;13877;18.896;-99.222;2022-10-31T16:11:55;19.15;;;13.20;;
12412;SDS011;13877;18.896;-99.222;2022-10-31T16:14:28;19.42;;;13.65;;
12412;SDS011;13877;18.896;-99.222;2022-10-31T16:16:59;19.55;;;14.07;;
12412;SDS011;13877;18.896;-99.222;2022-10-31T16:19:30;24.23;;;14.10;;
12412;SDS011;13877;18.896;-99.222;2022-10-31T16:22:06;22.55;;;14.88;;
12412;SDS011;13877;18.896;-99.222;2022-10-31T16:24:44;25.77;;;14.60;;
12412;SDS011;13877;18.896;-99.222;2022-10-31T16:27:21;27.10;;;14.90;;
12412;SDS011;13877;18.896;-99.222;2022-10-31T16:29:58;26.73;;;14.77;;
12412;SDS011;13877;18.896;-99.222;2022-10-31T16:37:29;24.02;;;15.40;;
12412;SDS011;13877;18.896;-99.222;2022-10-31T16:39:55;21.85;;;14.52;;
12412;SDS011;13877;18.896;-99.222;2022-10-31T16:42:26;24.42;;;15.18;;
12412;SDS011;13877;18.896;-99.222;2022-10-31T16:44:53;22.70;;;14.73;;
12412;SDS011;13877;18.896;-99.222;2022-10-31T16:47:19;28.05;;;16.08;;
12412;SDS011;13877;18.896;-99.222;2022-10-31T16:49:47;23.48;;;15.40;;
12412;SDS011;13877;18.896;-99.222;2022-10-31T16:52:15;24.00;;;13.95;;
12412;SDS011;13877;18.896;-99.222;2022-10-31T16:54:43;20.23;;;13.85;;
12412;SDS011;13877;18.896;-99.222;2022-10-31T16:57:16;20.30;;;13.35;;